Forseti — V2PV4 — position and weather

sailwx.info

Track history (hours):
 
Tides and Currents Weather Stations Pressure Air Temp Water Temp Dewpoint Dewpoint Depression Visibility Wind Speed Wind Dir Waves Ship Positions

Forseti

Last reported at 2015-Jul-28 20:33 UTC. Time now 2015-Aug-02 12:21 UTC.
Position N 53°48' E 014°21'.

Length 85 m; draft 4.1 m.

Type: Cargo ship. MMSI: 304010297.

Date/timePositionNaut miles runAvg speedWind from/ knotsBaromVisibWave heightAir tempDewpointWater temp
2015-Jul-28 20:33N 53°48' E 014°21'10 9.8
2015-Jul-28 19:33N 53°40' E 014°31'9 9.1
2015-Jul-28 18:33N 53°32' E 014°38'8 7.6
2015-Jul-28 17:33N 53°24' E 014°36'0 0.3
2015-Jul-28 16:32N 53°25' E 014°36'0 0.0
2015-Jul-28 15:32N 53°25' E 014°36'0 0.0
2015-Jul-28 14:32N 53°25' E 014°36'0 0.0
2015-Jul-28 13:32N 53°24' E 014°36'0 0.0
2015-Jul-28 12:32N 53°25' E 014°36'0 0.0
2015-Jul-28 11:32N 53°25' E 014°36'0 0.0
2015-Jul-28 10:32N 53°25' E 014°36'0 0.0
2015-Jul-28 09:32N 53°25' E 014°36'0 0.0
2015-Jul-28 08:32N 53°25' E 014°36'0 0.0
2015-Jul-28 07:32N 53°24' E 014°36'0 0.0
2015-Jul-28 06:32N 53°25' E 014°36'0 0.0
2015-Jul-28 05:32N 53°25' E 014°36'0 0.0
2015-Jul-28 04:32N 53°24' E 014°36'0 0.0
2015-Jul-28 03:32N 53°25' E 014°36'0 0.0
2015-Jul-28 02:29N 53°25' E 014°36'0 0.0
2015-Jul-28 01:32N 53°25' E 014°36'0 0.0
2015-Jul-28 00:32N 53°25' E 014°36'0 0.0
2015-Jul-27 23:32N 53°25' E 014°36'0 0.0
2015-Jul-27 22:32N 53°24' E 014°36'0 0.0
2015-Jul-27 21:32N 53°25' E 014°36'0 0.0
2015-Jul-27 20:32N 53°25' E 014°36'0 0.0
2015-Jul-27 19:29N 53°25' E 014°36'0 0.0
2015-Jul-27 18:32N 53°25' E 014°36'0 0.0
2015-Jul-27 17:32N 53°25' E 014°36'0 0.0
2015-Jul-27 16:32N 53°25' E 014°36'0 0.0
2015-Jul-27 15:32N 53°25' E 014°36'0 0.0
2015-Jul-27 14:32N 53°25' E 014°36'0 0.0
2015-Jul-27 13:32N 53°24' E 014°36'0 0.0
2015-Jul-27 12:32N 53°25' E 014°36'0 0.1
2015-Jul-27 11:31N 53°24' E 014°36'0 0.1
2015-Jul-27 10:33N 53°24' E 014°36'6 6.4
2015-Jul-27 09:33N 53°31' E 014°38'8 8.3
2015-Jul-27 08:33N 53°39' E 014°33'9 9.3
2015-Jul-27 07:33N 53°46' E 014°24'99 8.2
2015-Jul-26 19:33N 55°06' E 012°44'9 8.9
2015-Jul-26 18:33N 55°14' E 012°38'9 9.3
2015-Jul-26 17:33N 55°24' E 012°39'9 9.4
2015-Jul-26 16:33N 55°33' E 012°42'1110.9
2015-Jul-26 15:33N 55°44' E 012°40'1010.0
2015-Jul-26 14:34N 55°54' E 012°38'10 9.7
2015-Jul-26 13:33N 56°03' E 012°38'1110.6
2015-Jul-26 12:33N 56°10' E 012°23'9 9.2
2015-Jul-26 11:33N 56°15' E 012°09'20 8.2
2015-Jul-26 09:08N 56°33' E 011°57'5 9.0
2015-Jul-26 08:33N 56°39' E 011°55'9 8.8
2015-Jul-26 07:33N 56°47' E 011°51'8 8.4
2015-Jul-26 06:33N 56°55' E 011°46'9 9.1
2015-Jul-26 05:33N 57°04' E 011°40'9 9.5
2015-Jul-26 04:33N 57°13' E 011°34'1010.0
2015-Jul-26 03:30N 57°22' E 011°27'9 9.9
2015-Jul-26 02:33N 57°30' E 011°18'10 9.9
2015-Jul-26 01:32N 57°37' E 011°04'9 8.9
2015-Jul-26 00:33N 57°43' E 010°52'405 8.3
2015-Jul-23 23:31N 55°03' W 000°20'9 9.5
2015-Jul-23 22:33N 55°00' W 000°35'10 9.5
2015-Jul-23 21:33N 54°57' W 000°50'10 9.5
2015-Jul-23 20:29N 54°53' W 001°07'8 8.3
2015-Jul-23 19:33N 54°50' W 001°20'0 0.1
2015-Jul-23 18:27N 54°50' W 001°20'0 0.0
2015-Jul-23 17:27N 54°50' W 001°20'0 0.0
2015-Jul-23 06:18N 54°50' W 001°20'0 0.0
2015-Jul-23 05:33N 54°50' W 001°20'0 0.0
2015-Jul-23 04:33N 54°50' W 001°20'0 0.0
2015-Jul-23 03:30N 54°50' W 001°20'0 0.0
2015-Jul-23 02:30N 54°50' W 001°20'0 0.0
2015-Jul-23 00:24N 54°50' W 001°20'0 0.0
2015-Jul-22 23:33N 54°50' W 001°20'0 0.0
2015-Jul-22 22:18N 54°50' W 001°20'0 0.0
2015-Jul-22 21:18N 54°50' W 001°20'0 0.0
2015-Jul-22 19:33N 54°50' W 001°20'0 0.0
2015-Jul-22 18:33N 54°50' W 001°20'2 1.5
2015-Jul-22 17:28N 54°51' W 001°17'0 0.0
2015-Jul-22 16:31N 54°51' W 001°17'0 0.1
2015-Jul-22 15:31N 54°51' W 001°17'0 0.0
2015-Jul-22 14:31N 54°51' W 001°17'0 0.0
2015-Jul-22 13:31N 54°51' W 001°17'0 0.0
2015-Jul-22 12:28N 54°51' W 001°17'5 5.8
2015-Jul-22 11:33N 54°47' W 001°11'1010.3
2015-Jul-22 10:33N 54°42' W 000°56'1010.0
2015-Jul-22 09:32N 54°36' W 000°42'9 9.3
2015-Jul-22 08:33N 54°31' W 000°29'9 9.0
2015-Jul-22 07:33N 54°25' W 000°16'9 9.0
2015-Jul-22 06:33N 54°20' W 000°04'9 8.8
2015-Jul-22 05:33N 54°13' E 000°04'9 9.4
2015-Jul-22 04:33N 54°04' E 000°10'1010.1
2015-Jul-22 03:32N 53°54' E 000°16'1110.8
2015-Jul-22 02:33N 53°44' E 000°22'1110.7
2015-Jul-22 01:33N 53°34' E 000°17'1111.0
2015-Jul-22 00:34N 53°36' W 000°01'1312.5
2015-Jul-21 23:34N 53°44' W 000°18'1010.0
2015-Jul-21 22:32N 53°43' W 000°35'  
2015-Jul-19 07:29N 53°43' W 000°39'7 7.2
2015-Jul-19 06:33N 53°42' W 000°28'8 8.4
2015-Jul-19 05:34N 53°41' W 000°14'10 9.9
2015-Jul-19 04:33N 53°36' E 000°00'27 6.7
2015-Jul-19 00:32N 53°42' E 000°44'  
Track history (hours):
 
Tides and Currents Weather Stations Pressure Air Temp Water Temp Dewpoint Dewpoint Depression Visibility Wind Speed Wind Dir Waves Ship Positions

Forseti

Last reported at 2015-Jul-28 20:33 UTC. Time now 2015-Aug-02 12:21 UTC.
Position N 53°48' E 014°21'.

Length 85 m; draft 4.1 m.

Type: Cargo ship. MMSI: 304010297.

Date/timePositionNaut miles runAvg speedWind from/ knotsBaromVisibWave heightAir tempDewpointWater temp
2015-Jul-28 20:33N 53°48' E 014°21'10 9.8
2015-Jul-28 19:33N 53°40' E 014°31'9 9.1
2015-Jul-28 18:33N 53°32' E 014°38'8 7.6
2015-Jul-28 17:33N 53°24' E 014°36'0 0.3
2015-Jul-28 16:32N 53°25' E 014°36'0 0.0
2015-Jul-28 15:32N 53°25' E 014°36'0 0.0
2015-Jul-28 14:32N 53°25' E 014°36'0 0.0
2015-Jul-28 13:32N 53°24' E 014°36'0 0.0
2015-Jul-28 12:32N 53°25' E 014°36'0 0.0
2015-Jul-28 11:32N 53°25' E 014°36'0 0.0
2015-Jul-28 10:32N 53°25' E 014°36'0 0.0
2015-Jul-28 09:32N 53°25' E 014°36'0 0.0
2015-Jul-28 08:32N 53°25' E 014°36'0 0.0
2015-Jul-28 07:32N 53°24' E 014°36'0 0.0
2015-Jul-28 06:32N 53°25' E 014°36'0 0.0
2015-Jul-28 05:32N 53°25' E 014°36'0 0.0
2015-Jul-28 04:32N 53°24' E 014°36'0 0.0
2015-Jul-28 03:32N 53°25' E 014°36'0 0.0
2015-Jul-28 02:29N 53°25' E 014°36'0 0.0
2015-Jul-28 01:32N 53°25' E 014°36'0 0.0
2015-Jul-28 00:32N 53°25' E 014°36'0 0.0
2015-Jul-27 23:32N 53°25' E 014°36'0 0.0
2015-Jul-27 22:32N 53°24' E 014°36'0 0.0
2015-Jul-27 21:32N 53°25' E 014°36'0 0.0
2015-Jul-27 20:32N 53°25' E 014°36'0 0.0
2015-Jul-27 19:29N 53°25' E 014°36'0 0.0
2015-Jul-27 18:32N 53°25' E 014°36'0 0.0
2015-Jul-27 17:32N 53°25' E 014°36'0 0.0
2015-Jul-27 16:32N 53°25' E 014°36'0 0.0
2015-Jul-27 15:32N 53°25' E 014°36'0 0.0
2015-Jul-27 14:32N 53°25' E 014°36'0 0.0
2015-Jul-27 13:32N 53°24' E 014°36'0 0.0
2015-Jul-27 12:32N 53°25' E 014°36'0 0.1
2015-Jul-27 11:31N 53°24' E 014°36'0 0.1
2015-Jul-27 10:33N 53°24' E 014°36'6 6.4
2015-Jul-27 09:33N 53°31' E 014°38'8 8.3
2015-Jul-27 08:33N 53°39' E 014°33'9 9.3
2015-Jul-27 07:33N 53°46' E 014°24'99 8.2
2015-Jul-26 19:33N 55°06' E 012°44'9 8.9
2015-Jul-26 18:33N 55°14' E 012°38'9 9.3
2015-Jul-26 17:33N 55°24' E 012°39'9 9.4
2015-Jul-26 16:33N 55°33' E 012°42'1110.9
2015-Jul-26 15:33N 55°44' E 012°40'1010.0
2015-Jul-26 14:34N 55°54' E 012°38'10 9.7
2015-Jul-26 13:33N 56°03' E 012°38'1110.6
2015-Jul-26 12:33N 56°10' E 012°23'9 9.2
2015-Jul-26 11:33N 56°15' E 012°09'20 8.2
2015-Jul-26 09:08N 56°33' E 011°57'5 9.0
2015-Jul-26 08:33N 56°39' E 011°55'9 8.8
2015-Jul-26 07:33N 56°47' E 011°51'8 8.4
2015-Jul-26 06:33N 56°55' E 011°46'9 9.1
2015-Jul-26 05:33N 57°04' E 011°40'9 9.5
2015-Jul-26 04:33N 57°13' E 011°34'1010.0
2015-Jul-26 03:30N 57°22' E 011°27'9 9.9
2015-Jul-26 02:33N 57°30' E 011°18'10 9.9
2015-Jul-26 01:32N 57°37' E 011°04'9 8.9
2015-Jul-26 00:33N 57°43' E 010°52'405 8.3
2015-Jul-23 23:31N 55°03' W 000°20'9 9.5
2015-Jul-23 22:33N 55°00' W 000°35'10 9.5
2015-Jul-23 21:33N 54°57' W 000°50'10 9.5
2015-Jul-23 20:29N 54°53' W 001°07'8 8.3
2015-Jul-23 19:33N 54°50' W 001°20'0 0.1
2015-Jul-23 18:27N 54°50' W 001°20'0 0.0
2015-Jul-23 17:27N 54°50' W 001°20'0 0.0
2015-Jul-23 06:18N 54°50' W 001°20'0 0.0
2015-Jul-23 05:33N 54°50' W 001°20'0 0.0
2015-Jul-23 04:33N 54°50' W 001°20'0 0.0
2015-Jul-23 03:30N 54°50' W 001°20'0 0.0
2015-Jul-23 02:30N 54°50' W 001°20'0 0.0
2015-Jul-23 00:24N 54°50' W 001°20'0 0.0
2015-Jul-22 23:33N 54°50' W 001°20'0 0.0
2015-Jul-22 22:18N 54°50' W 001°20'0 0.0
2015-Jul-22 21:18N 54°50' W 001°20'0 0.0
2015-Jul-22 19:33N 54°50' W 001°20'0 0.0
2015-Jul-22 18:33N 54°50' W 001°20'2 1.5
2015-Jul-22 17:28N 54°51' W 001°17'0 0.0
2015-Jul-22 16:31N 54°51' W 001°17'0 0.1
2015-Jul-22 15:31N 54°51' W 001°17'0 0.0
2015-Jul-22 14:31N 54°51' W 001°17'0 0.0
2015-Jul-22 13:31N 54°51' W 001°17'0 0.0
2015-Jul-22 12:28N 54°51' W 001°17'5 5.8
2015-Jul-22 11:33N 54°47' W 001°11'1010.3
2015-Jul-22 10:33N 54°42' W 000°56'1010.0
2015-Jul-22 09:32N 54°36' W 000°42'9 9.3
2015-Jul-22 08:33N 54°31' W 000°29'9 9.0
2015-Jul-22 07:33N 54°25' W 000°16'9 9.0
2015-Jul-22 06:33N 54°20' W 000°04'9 8.8
2015-Jul-22 05:33N 54°13' E 000°04'9 9.4
2015-Jul-22 04:33N 54°04' E 000°10'1010.1
2015-Jul-22 03:32N 53°54' E 000°16'1110.8
2015-Jul-22 02:33N 53°44' E 000°22'1110.7
2015-Jul-22 01:33N 53°34' E 000°17'1111.0
2015-Jul-22 00:34N 53°36' W 000°01'1312.5
2015-Jul-21 23:34N 53°44' W 000°18'1010.0
2015-Jul-21 22:32N 53°43' W 000°35'  
2015-Jul-19 07:29N 53°43' W 000°39'7 7.2
2015-Jul-19 06:33N 53°42' W 000°28'8 8.4
2015-Jul-19 05:34N 53°41' W 000°14'10 9.9
2015-Jul-19 04:33N 53°36' E 000°00'27 6.7
2015-Jul-19 00:32N 53°42' E 000°44'  

Dump ship's entire track history